createdAt,value
2023-02-16T00:00:41.281Z,126.30
2023-02-16T00:03:29.404Z,124.30
2023-02-16T00:05:57.289Z,120.80
2023-02-16T00:08:25.065Z,120.00
2023-02-16T00:11:08.715Z,120.10
2023-02-16T00:13:51.521Z,129.20
2023-02-16T00:16:24.648Z,120.60
2023-02-16T00:18:53.356Z,138.50
2023-02-16T00:21:21.483Z,149.80
2023-02-16T00:23:50.351Z,134.30
2023-02-16T00:26:24.593Z,138.40
2023-02-16T00:28:55.160Z,141.40
2023-02-16T00:31:27.458Z,142.50
2023-02-16T00:33:56.327Z,124.10
2023-02-16T00:36:24.340Z,138.20
2023-02-16T00:38:52.326Z,134.30
2023-02-16T00:41:39.231Z,134.30
2023-02-16T00:44:16.371Z,129.30
2023-02-16T00:46:46.030Z,122.30
2023-02-16T00:49:19.162Z,138.70
2023-02-16T00:51:50.062Z,118.70
2023-02-16T00:54:17.851Z,119.40
2023-02-16T00:56:46.487Z,123.90
2023-02-16T00:59:19.382Z,124.30
2023-02-16T01:01:47.916Z,120.50
2023-02-16T01:04:23.759Z,124.40
2023-02-16T01:07:07.562Z,122.00
2023-02-16T01:09:51.697Z,125.40
2023-02-16T01:12:21.718Z,116.90
2023-02-16T01:14:54.289Z,121.40
2023-02-16T01:17:24.848Z,126.40
2023-02-16T01:19:54.780Z,137.60
2023-02-16T01:22:22.525Z,127.60
2023-02-16T01:24:50.350Z,137.50
2023-02-16T01:27:19.104Z,129.50
2023-02-16T01:29:46.815Z,128.30
2023-02-16T01:32:15.994Z,117.10
2023-02-16T01:34:43.881Z,128.20
2023-02-16T01:37:16.373Z,133.50
2023-02-16T01:39:45.360Z,138.70
2023-02-16T01:42:34.226Z,131.50
2023-02-16T01:45:09.648Z,123.80
2023-02-16T01:47:47.677Z,142.80
2023-02-16T01:50:17.294Z,141.50
2023-02-16T01:53:11.957Z,134.00
2023-02-16T01:55:47.423Z,143.10
2023-02-16T01:58:27.350Z,136.30
2023-02-16T02:00:55.417Z,135.90
2023-02-16T02:03:57.305Z,138.20
2023-02-16T02:06:34.300Z,144.30
2023-02-16T02:09:05.114Z,140.80
2023-02-16T02:11:41.841Z,138.20
2023-02-16T02:14:22.269Z,139.70
2023-02-16T02:17:00.901Z,141.90
2023-02-16T02:19:35.714Z,146.80
2023-02-16T02:22:46.755Z,154.10
2023-02-16T02:25:31.525Z,141.60
2023-02-16T02:28:08.235Z,145.80
2023-02-16T02:30:51.722Z,162.00
2023-02-16T02:33:46.043Z,165.10
2023-02-16T02:36:29.807Z,151.70
2023-02-16T02:39:32.261Z,159.50
2023-02-16T02:42:25.798Z,148.80
2023-02-16T02:45:04.244Z,155.40
2023-02-16T02:47:48.516Z,148.80
2023-02-16T02:50:38.540Z,154.90
2023-02-16T02:53:13.565Z,145.40
2023-02-16T02:56:04.908Z,173.10
2023-02-16T02:58:51.636Z,166.80
2023-02-16T03:01:22.048Z,158.20
2023-02-16T03:03:53.623Z,168.80
2023-02-16T03:06:30.190Z,166.70
2023-02-16T03:09:06.880Z,172.90
2023-02-16T03:11:50.875Z,172.70
2023-02-16T03:14:30.760Z,180.40
2023-02-16T03:17:17.456Z,183.80
2023-02-16T03:20:04.261Z,216.50
2023-02-16T03:22:49.392Z,191.50
2023-02-16T03:25:34.191Z,191.90
2023-02-16T03:28:22.631Z,196.30
2023-02-16T03:30:52.727Z,191.80
2023-02-16T03:33:22.179Z,259.50
2023-02-16T03:35:51.413Z,200.60
2023-02-16T03:38:20.367Z,207.10
2023-02-16T03:40:50.481Z,230.80
2023-02-16T03:43:18.756Z,267.10
2023-02-16T03:45:46.514Z,249.30
2023-02-16T03:48:14.993Z,270.10
2023-02-16T03:50:42.729Z,207.70
2023-02-16T03:53:10.588Z,244.50
2023-02-16T03:55:47.041Z,253.80
2023-02-16T03:58:19.150Z,250.00
2023-02-16T04:00:47.388Z,232.10
2023-02-16T04:03:15.778Z,237.00
2023-02-16T04:05:44.506Z,227.40
2023-02-16T04:08:12.587Z,211.40
2023-02-16T04:10:40.493Z,208.20
2023-02-16T04:13:08.733Z,227.50
2023-02-16T04:15:36.533Z,245.60
2023-02-16T04:18:04.542Z,200.60
2023-02-16T04:20:34.075Z,174.50
2023-02-16T04:23:03.108Z,235.80
2023-02-16T04:25:31.486Z,240.40
2023-02-16T04:27:59.733Z,181.70
2023-02-16T04:30:31.036Z,189.60
2023-02-16T04:32:59.554Z,240.50
2023-02-16T04:35:27.951Z,270.00
2023-02-16T04:37:55.714Z,242.30
2023-02-16T04:40:23.479Z,240.20
2023-02-16T04:42:51.198Z,182.40
2023-02-16T04:45:19.184Z,165.00
2023-02-16T04:47:47.980Z,176.80
2023-02-16T04:50:15.723Z,194.80
2023-02-16T04:52:43.552Z,177.40
2023-02-16T04:55:11.526Z,206.90
2023-02-16T04:57:40.351Z,178.10
2023-02-16T05:00:09.896Z,197.30
2023-02-16T05:02:37.668Z,185.00
2023-02-16T05:05:05.635Z,184.40
2023-02-16T05:07:33.400Z,178.90
2023-02-16T05:10:01.107Z,231.60
2023-02-16T05:12:44.735Z,226.30
2023-02-16T05:17:40.390Z,208.80
2023-02-16T05:20:08.642Z,179.10
2023-02-16T05:22:38.970Z,198.90
2023-02-16T05:25:07.570Z,210.70
2023-02-16T05:27:35.423Z,243.30
2023-02-16T05:30:03.845Z,200.50
2023-02-16T05:32:31.694Z,203.30
2023-02-16T05:34:59.495Z,203.70
2023-02-16T05:37:27.262Z,204.50
2023-02-16T05:39:55.024Z,230.50
2023-02-16T05:42:22.736Z,333.30
2023-02-16T05:44:50.507Z,204.20
2023-02-16T05:47:18.248Z,181.60
2023-02-16T05:49:45.990Z,168.40
2023-02-16T05:52:13.741Z,194.20
2023-02-16T05:54:41.474Z,223.40
2023-02-16T05:57:10.176Z,203.80
2023-02-16T05:59:37.900Z,212.40
2023-02-16T06:02:05.691Z,245.60
2023-02-16T06:04:33.482Z,211.60
2023-02-16T06:07:02.181Z,230.50
2023-02-16T06:09:31.345Z,201.40
2023-02-16T06:11:59.200Z,204.70
2023-02-16T06:14:26.947Z,201.30
2023-02-16T06:16:56.451Z,224.20
2023-02-16T06:19:24.363Z,187.30
2023-02-16T06:21:52.131Z,194.50
2023-02-16T06:24:19.882Z,222.20
2023-02-16T06:26:47.594Z,208.70
2023-02-16T06:29:15.319Z,202.70
2023-02-16T06:31:43.206Z,202.40
2023-02-16T06:34:11.186Z,193.10
2023-02-16T06:36:42.099Z,196.00
2023-02-16T06:39:10.422Z,227.90
2023-02-16T06:41:40.369Z,203.70
2023-02-16T06:44:12.578Z,181.50
2023-02-16T06:46:45.815Z,199.90
2023-02-16T06:49:18.639Z,183.80
2023-02-16T06:51:48.434Z,210.40
2023-02-16T06:54:17.311Z,179.20
2023-02-16T06:56:45.423Z,176.00
2023-02-16T06:59:13.372Z,208.30
2023-02-16T07:01:42.530Z,188.10
2023-02-16T07:04:12.376Z,287.90
2023-02-16T07:06:41.140Z,243.70
2023-02-16T07:09:10.605Z,170.60
2023-02-16T07:11:39.521Z,181.40
2023-02-16T07:14:07.789Z,168.30
2023-02-16T07:16:35.765Z,185.80
2023-02-16T07:19:03.503Z,190.70
2023-02-16T07:21:31.265Z,175.80
2023-02-16T07:23:58.999Z,191.00
2023-02-16T07:26:26.836Z,171.80
2023-02-16T07:28:54.586Z,207.60
2023-02-16T07:31:26.191Z,195.30
2023-02-16T07:33:54.061Z,179.60
2023-02-16T07:36:21.858Z,199.80
2023-02-16T07:38:49.619Z,213.20
2023-02-16T07:41:17.698Z,205.10
2023-02-16T07:43:45.432Z,196.90
2023-02-16T07:46:13.244Z,189.10
2023-02-16T07:48:41.224Z,188.60
2023-02-16T07:51:09.093Z,245.10
2023-02-16T07:53:36.967Z,279.20
2023-02-16T07:56:05.130Z,210.60
2023-02-16T07:58:32.954Z,214.10
2023-02-16T08:01:17.493Z,190.20
2023-02-16T08:03:45.274Z,212.90
2023-02-16T08:06:14.296Z,199.10
2023-02-16T08:08:45.622Z,251.10
2023-02-16T08:11:15.074Z,189.90
2023-02-16T08:13:43.078Z,214.00
2023-02-16T08:16:24.342Z,185.40
2023-02-16T08:18:52.779Z,199.30
2023-02-16T08:21:23.621Z,211.40
2023-02-16T08:23:55.858Z,224.60
2023-02-16T08:26:26.589Z,209.60
2023-02-16T08:28:57.352Z,211.10
2023-02-16T08:31:30.046Z,217.90
2023-02-16T08:34:00.710Z,242.90
2023-02-16T08:36:34.734Z,219.80
2023-02-16T08:39:08.741Z,234.30
2023-02-16T08:41:37.959Z,198.70
2023-02-16T08:44:07.238Z,196.80
2023-02-16T08:46:37.117Z,224.90
2023-02-16T08:49:06.236Z,207.30
2023-02-16T08:51:36.269Z,212.80
2023-02-16T08:54:07.904Z,232.20
2023-02-16T08:56:35.819Z,201.30
2023-02-16T08:59:03.947Z,176.00
2023-02-16T09:01:32.259Z,200.00
2023-02-16T09:04:00.480Z,223.50
2023-02-16T09:06:28.769Z,189.00
2023-02-16T09:08:57.672Z,220.60
2023-02-16T09:11:27.847Z,251.10
2023-02-16T09:13:55.599Z,202.60
2023-02-16T09:16:28.162Z,237.70
2023-02-16T09:19:01.459Z,186.70
2023-02-16T09:21:34.048Z,221.60
2023-02-16T09:24:04.726Z,213.90
2023-02-16T09:26:35.318Z,212.20
2023-02-16T09:29:03.838Z,200.10
2023-02-16T09:31:34.549Z,227.80
2023-02-16T09:34:17.685Z,210.50
2023-02-16T09:36:47.325Z,200.90
2023-02-16T09:39:19.346Z,214.00
2023-02-16T09:42:19.242Z,217.20
2023-02-16T09:45:09.906Z,186.40
2023-02-16T09:47:42.933Z,219.70
2023-02-16T09:50:27.831Z,201.20
2023-02-16T09:53:06.417Z,206.20
2023-02-16T09:56:08.355Z,221.10
2023-02-16T09:59:02.287Z,220.20
2023-02-16T10:01:46.385Z,217.30
2023-02-16T10:04:23.746Z,213.20
2023-02-16T10:07:04.218Z,217.50
2023-02-16T10:09:33.348Z,228.10
2023-02-16T10:12:07.835Z,230.20
2023-02-16T10:14:49.740Z,212.10
2023-02-16T10:17:38.322Z,209.40
2023-02-16T10:20:12.084Z,211.10
2023-02-16T10:22:39.934Z,221.40
2023-02-16T10:25:37.569Z,228.80
2023-02-16T10:28:09.054Z,223.00
2023-02-16T10:30:38.730Z,227.50
2023-02-16T10:33:38.218Z,235.10
2023-02-16T10:36:22.859Z,244.20
2023-02-16T10:39:23.654Z,249.80
2023-02-16T10:42:16.942Z,242.70
2023-02-16T10:45:31.813Z,259.80
2023-02-16T10:47:59.702Z,250.80
2023-02-16T10:50:38.801Z,251.50
2023-02-16T10:53:34.177Z,227.60
2023-02-16T10:56:02.507Z,223.50
2023-02-16T10:58:39.978Z,265.80
2023-02-16T11:01:18.835Z,248.50
2023-02-16T11:03:50.076Z,230.90
2023-02-16T11:06:21.724Z,252.80
2023-02-16T11:08:53.604Z,222.60
2023-02-16T11:11:22.980Z,220.90
2023-02-16T11:13:59.789Z,227.60
2023-02-16T11:16:28.598Z,217.60
2023-02-16T11:19:01.337Z,210.90
2023-02-16T11:21:50.179Z,216.20
2023-02-16T11:24:33.278Z,216.70
2023-02-16T11:27:06.759Z,229.30
2023-02-16T11:29:34.808Z,221.00
2023-02-16T11:32:08.299Z,220.10
2023-02-16T11:34:41.392Z,204.10
2023-02-16T11:37:26.715Z,213.60
2023-02-16T11:40:07.214Z,210.20
2023-02-16T11:42:43.819Z,207.30
2023-02-16T11:45:24.897Z,202.10
2023-02-16T11:48:01.666Z,217.30
2023-02-16T11:50:33.405Z,193.20
2023-02-16T11:53:23.199Z,254.80
2023-02-16T11:55:51.285Z,185.50
2023-02-16T11:58:21.377Z,221.30
2023-02-16T12:01:17.424Z,207.00
2023-02-16T12:04:03.739Z,179.50
2023-02-16T12:06:39.078Z,195.30
2023-02-16T12:09:11.879Z,161.10
2023-02-16T12:11:54.068Z,164.80
2023-02-16T12:14:48.085Z,171.40
2023-02-16T12:17:33.590Z,174.20
2023-02-16T12:20:17.320Z,170.20
2023-02-16T12:22:51.124Z,171.20
2023-02-16T12:25:39.303Z,167.40
2023-02-16T12:28:13.456Z,166.90
2023-02-16T12:31:02.266Z,161.90
2023-02-16T12:34:01.672Z,177.10
2023-02-16T12:36:43.954Z,177.50
2023-02-16T12:39:37.737Z,160.40
2023-02-16T12:42:32.917Z,160.50
2023-02-16T12:45:12.921Z,167.00
2023-02-16T12:47:54.717Z,135.10
2023-02-16T12:50:27.539Z,146.40
2023-02-16T12:53:14.501Z,140.10
2023-02-16T12:55:46.842Z,135.80
2023-02-16T12:58:32.242Z,131.10
2023-02-16T13:01:21.790Z,155.50
2023-02-16T13:04:08.863Z,155.10
2023-02-16T13:06:42.694Z,173.90
2023-02-16T13:09:34.161Z,161.90
2023-02-16T13:12:09.555Z,180.00
2023-02-16T13:14:42.188Z,153.70
2023-02-16T13:17:20.943Z,142.40
2023-02-16T13:19:48.812Z,152.20
2023-02-16T13:22:38.747Z,142.10
2023-02-16T13:25:31.644Z,232.70
2023-02-16T13:28:05.698Z,154.40
2023-02-16T13:30:44.744Z,161.90
2023-02-16T13:33:29.100Z,175.00
2023-02-16T13:36:28.807Z,162.60
2023-02-16T13:38:59.536Z,173.30
2023-02-16T13:42:07.030Z,143.40
2023-02-16T13:44:47.926Z,149.10
2023-02-16T13:47:21.705Z,172.90
2023-02-16T13:49:58.336Z,168.00
2023-02-16T13:52:44.253Z,157.50
2023-02-16T13:55:34.743Z,180.80
2023-02-16T13:58:05.609Z,174.30
2023-02-16T14:00:39.031Z,149.20
2023-02-16T14:03:12.373Z,173.80
2023-02-16T14:05:46.230Z,132.40
2023-02-16T14:08:21.628Z,178.70
2023-02-16T14:10:55.887Z,144.60
2023-02-16T14:13:32.754Z,166.10
2023-02-16T14:16:05.094Z,130.50
2023-02-16T14:18:33.027Z,137.00
2023-02-16T14:21:06.404Z,132.90
2023-02-16T14:23:35.089Z,127.00
2023-02-16T14:26:08.424Z,129.70
2023-02-16T14:28:36.223Z,130.10
2023-02-16T14:31:15.131Z,157.40
2023-02-16T14:33:56.222Z,144.30
2023-02-16T14:36:27.733Z,150.00
2023-02-16T14:38:58.332Z,126.20
2023-02-16T14:41:36.770Z,173.60
2023-02-16T14:44:04.477Z,193.00
2023-02-16T14:47:11.360Z,164.50
2023-02-16T14:50:05.888Z,169.00
2023-02-16T14:53:04.717Z,205.80
2023-02-16T14:55:43.431Z,227.50
2023-02-16T14:58:14.204Z,169.20
2023-02-16T15:01:01.485Z,212.90
2023-02-16T15:03:45.172Z,159.50
2023-02-16T15:06:33.923Z,129.40
2023-02-16T15:09:13.463Z,157.00
2023-02-16T15:12:11.024Z,148.90
2023-02-16T15:14:54.573Z,138.00
2023-02-16T15:17:34.295Z,123.30
2023-02-16T15:20:20.101Z,128.70
2023-02-16T15:22:59.671Z,182.10
2023-02-16T15:25:33.865Z,152.80
2023-02-16T15:28:17.687Z,140.50
2023-02-16T15:33:24.370Z,146.90
2023-02-16T15:36:22.661Z,137.10
2023-02-16T15:39:01.382Z,151.20
2023-02-16T15:41:36.115Z,128.70
2023-02-16T15:44:06.786Z,175.50
2023-02-16T15:46:42.021Z,218.00
2023-02-16T15:49:34.939Z,185.10
2023-02-16T15:52:02.752Z,173.30
2023-02-16T15:54:35.382Z,174.70
2023-02-16T15:57:30.658Z,240.70
2023-02-16T16:00:02.955Z,232.70
2023-02-16T16:02:47.410Z,190.10
2023-02-16T16:05:26.301Z,272.20
2023-02-16T16:07:56.594Z,328.80
2023-02-16T16:10:30.574Z,209.90
2023-02-16T16:13:15.529Z,265.60
2023-02-16T16:15:47.139Z,262.30
2023-02-16T16:18:33.981Z,351.70
2023-02-16T16:21:02.721Z,275.50
2023-02-16T16:23:31.198Z,236.30
2023-02-16T16:25:59.787Z,144.80
2023-02-16T16:28:27.529Z,179.10
2023-02-16T16:31:17.453Z,186.20
2023-02-16T16:34:03.333Z,204.20
2023-02-16T16:36:32.877Z,235.60
2023-02-16T16:39:23.638Z,231.90
2023-02-16T16:41:57.235Z,176.90
2023-02-16T16:47:22.414Z,181.60
2023-02-16T16:49:55.211Z,161.50
2023-02-16T16:52:50.661Z,171.30
2023-02-16T16:55:21.567Z,152.60
2023-02-16T16:57:51.956Z,170.10
2023-02-16T17:00:21.298Z,164.50
2023-02-16T17:02:49.123Z,152.50
2023-02-16T17:05:18.548Z,159.50
2023-02-16T17:07:50.008Z,207.00
2023-02-16T17:10:19.873Z,174.80
2023-02-16T17:12:52.813Z,184.80
2023-02-16T17:15:29.422Z,172.50
2023-02-16T17:17:57.706Z,156.60
2023-02-16T17:20:25.561Z,163.40
2023-02-16T17:22:53.310Z,165.50
2023-02-16T17:25:21.315Z,164.40
2023-02-16T17:27:49.111Z,163.20
2023-02-16T17:30:17.077Z,161.60
2023-02-16T17:32:44.918Z,179.10
2023-02-16T17:35:12.636Z,185.30
2023-02-16T17:37:40.739Z,200.80
2023-02-16T17:40:19.402Z,208.40
2023-02-16T17:42:48.995Z,163.60
2023-02-16T17:45:19.617Z,180.20
2023-02-16T17:47:50.896Z,181.20
2023-02-16T17:50:19.875Z,174.00
2023-02-16T17:52:47.720Z,202.50
2023-02-16T17:55:16.068Z,177.00
2023-02-16T17:57:43.866Z,211.70
2023-02-16T18:00:17.613Z,191.50
2023-02-16T18:02:45.524Z,184.10
2023-02-16T18:05:13.369Z,231.10
2023-02-16T18:07:41.174Z,228.20
2023-02-16T18:10:16.368Z,167.20
2023-02-16T18:12:44.218Z,166.00
2023-02-16T18:15:12.013Z,191.40
2023-02-16T18:17:39.786Z,161.10
2023-02-16T18:20:08.369Z,179.40
2023-02-16T18:22:36.219Z,156.70
2023-02-16T18:25:04.222Z,168.00
2023-02-16T18:27:31.946Z,177.80
2023-02-16T18:29:59.824Z,165.30
2023-02-16T18:32:27.605Z,170.30
2023-02-16T18:34:55.311Z,172.30
2023-02-16T18:37:24.492Z,157.10
2023-02-16T18:39:52.294Z,169.70
2023-02-16T18:42:20.137Z,160.50
2023-02-16T18:44:49.019Z,161.30
2023-02-16T18:47:16.809Z,166.00
2023-02-16T18:49:44.531Z,152.50
2023-02-16T18:52:12.370Z,174.20
2023-02-16T18:54:40.350Z,157.40
2023-02-16T18:57:08.106Z,177.60
2023-02-16T18:59:35.932Z,154.40
2023-02-16T19:02:03.710Z,154.30
2023-02-16T19:04:32.000Z,154.90
2023-02-16T19:06:59.822Z,165.00
2023-02-16T19:09:27.653Z,165.60
2023-02-16T19:11:55.872Z,150.60
2023-02-16T19:14:23.672Z,151.90
2023-02-16T19:16:51.410Z,159.70
2023-02-16T19:19:19.149Z,144.50
2023-02-16T19:21:46.931Z,157.10
2023-02-16T19:24:14.723Z,166.30
2023-02-16T19:26:42.741Z,191.10
2023-02-16T19:29:12.659Z,162.60
2023-02-16T19:31:53.942Z,227.10
2023-02-16T19:34:29.609Z,247.80
2023-02-16T19:36:57.357Z,192.90
2023-02-16T19:39:25.193Z,253.10
2023-02-16T19:41:52.952Z,262.80
2023-02-16T19:44:20.685Z,209.80
2023-02-16T19:46:48.407Z,216.10
2023-02-16T19:49:17.091Z,166.90
2023-02-16T19:51:47.576Z,190.20
2023-02-16T19:54:15.523Z,176.10
2023-02-16T19:56:43.391Z,171.60
2023-02-16T19:59:11.238Z,156.50
2023-02-16T20:01:39.339Z,178.60
2023-02-16T20:04:07.226Z,194.00
2023-02-16T20:06:39.120Z,202.80
2023-02-16T20:09:07.670Z,208.10
2023-02-16T20:11:37.939Z,170.80
2023-02-16T20:14:05.954Z,169.50
2023-02-16T20:16:33.677Z,145.50
2023-02-16T20:19:01.497Z,155.50
2023-02-16T20:21:30.050Z,178.00
2023-02-16T20:24:02.299Z,164.10
2023-02-16T20:26:40.164Z,184.10
2023-02-16T20:29:10.352Z,230.90
2023-02-16T20:31:44.399Z,221.30
2023-02-16T20:34:12.258Z,211.40
2023-02-16T20:36:39.977Z,175.40
2023-02-16T20:39:08.373Z,192.00
2023-02-16T20:41:37.260Z,169.70
2023-02-16T20:44:05.410Z,158.40
2023-02-16T20:46:33.436Z,188.50
2023-02-16T20:49:01.272Z,180.40
2023-02-16T20:51:29.072Z,152.90
2023-02-16T20:54:00.205Z,172.60
2023-02-16T20:56:29.060Z,174.50
2023-02-16T20:58:57.519Z,120.50
2023-02-16T21:01:38.075Z,151.80
2023-02-16T21:04:07.976Z,162.60
2023-02-16T21:06:37.492Z,162.60
2023-02-16T21:09:06.883Z,149.80
2023-02-16T21:11:35.068Z,164.50
2023-02-16T21:14:04.270Z,154.50
2023-02-16T21:16:32.287Z,160.90
2023-02-16T21:19:00.132Z,157.40
2023-02-16T21:21:28.376Z,151.80
2023-02-16T21:23:56.476Z,153.90
2023-02-16T21:26:25.352Z,157.60
2023-02-16T21:28:54.244Z,163.70
2023-02-16T21:31:24.507Z,160.30
2023-02-16T21:33:53.439Z,160.60
2023-02-16T21:36:24.076Z,150.00
2023-02-16T21:38:52.102Z,151.80
2023-02-16T21:41:27.412Z,151.00
2023-02-16T21:43:59.157Z,141.70
2023-02-16T21:46:30.674Z,151.80
2023-02-16T21:48:58.960Z,157.80
2023-02-16T21:51:30.037Z,155.30
2023-02-16T21:53:58.797Z,146.20
2023-02-16T21:56:35.284Z,150.10
2023-02-16T21:59:06.141Z,157.40
2023-02-16T22:01:37.137Z,150.70
2023-02-16T22:04:05.617Z,145.50
2023-02-16T22:06:41.510Z,158.90
2023-02-16T22:09:17.493Z,153.80
2023-02-16T22:11:46.636Z,159.60
2023-02-16T22:14:14.622Z,153.40
2023-02-16T22:16:44.987Z,154.30
2023-02-16T22:19:14.706Z,153.10
2023-02-16T22:21:44.501Z,151.40
2023-02-16T22:24:14.354Z,146.80
2023-02-16T22:26:42.507Z,153.00
2023-02-16T22:29:10.822Z,143.80
2023-02-16T22:31:43.365Z,159.60
2023-02-16T22:34:15.200Z,160.40
2023-02-16T22:36:43.037Z,157.20
2023-02-16T22:39:13.068Z,153.90
2023-02-16T22:41:41.226Z,155.50
2023-02-16T22:44:11.052Z,156.30
2023-02-16T22:46:39.222Z,139.70
2023-02-16T22:49:07.205Z,146.90
2023-02-16T22:51:35.212Z,141.60
2023-02-16T22:54:04.434Z,147.30
2023-02-16T22:56:33.749Z,150.10
2023-02-16T22:59:01.548Z,156.80
2023-02-16T23:01:30.728Z,146.10
2023-02-16T23:04:01.083Z,149.80
2023-02-16T23:06:35.314Z,143.40
2023-02-16T23:09:11.506Z,161.70
2023-02-16T23:11:40.103Z,183.30
2023-02-16T23:14:16.194Z,169.40
2023-02-16T23:16:51.101Z,145.10
2023-02-16T23:19:21.499Z,140.20
2023-02-16T23:21:49.338Z,145.20
2023-02-16T23:24:20.496Z,152.40
2023-02-16T23:26:49.192Z,135.70
2023-02-16T23:29:17.531Z,150.70
2023-02-16T23:31:47.213Z,145.30
2023-02-16T23:34:16.061Z,149.80
2023-02-16T23:36:45.330Z,141.10
2023-02-16T23:39:16.561Z,143.30
2023-02-16T23:41:45.423Z,144.10
2023-02-16T23:44:14.529Z,149.80
2023-02-16T23:46:42.569Z,153.00
2023-02-16T23:49:10.339Z,143.10
2023-02-16T23:51:38.135Z,143.00
2023-02-16T23:54:05.894Z,147.90
2023-02-16T23:56:33.686Z,144.50
2023-02-16T23:59:01.591Z,137.20
